Terminal Aerodrome Forecast
Issued by NWS

Home | Current Version | Previous Version | Text Only | Print | Product List | Glossary On
Versions: 1 2 3 4 5 6 7 8 9 10 11 12 13 14 15 16 17 18 19 20 21 22 23 24 25
000
FTAK31 PANC 221739
TAFATK
TAF
PATK 221739Z 2218/2318 36004KT P6SM VCSH OVC050
     FM230600 VRB03KT 4SM -SN OVC025
     FM231200 00000KT P6SM -SN BKN025 OVC040=

USA.gov is the U.S. government's official web portal to all federal, state and local government web resources and services.